• Join FlightAware (Why Join?)
  • Login
  • US Flag 
12:38PM EST


 

Airport Tracker/Info


-or-


 

Live Flight TrackerFlight Track Log ✈ AFL104 ✈ 17-Jul-2014 ✈ UUEE / SVO - KIAD

Flight Track Log - Related Links

Times and Time Zones

All times are in EDT time to prevent confusion due to time zone crossing. See the AFL104 flight status page for this flight to view local times or setup timezone preferences in your user account.

Time Position Orientation Groundspeed Altitude Reporting Facility
EDT Latitude Longitude Course Direction KTS MPH feet Rate Location/Type
02:56AM 56.1615 37.0950 313° West  Level FlightAware Approximate
02:57AM 56.2373 36.9447 312° West  Level FlightAware Approximate
02:58AM 56.3130 36.7939 312° West  Level FlightAware Approximate
02:59AM 56.3885 36.6425 312° West  Level FlightAware Approximate
03:00AM 56.4638 36.4905 312° West  Level FlightAware Approximate
03:01AM 56.5389 36.3378 312° West  Level FlightAware Approximate
03:02AM 56.6138 36.1846 312° West  Level FlightAware Approximate
03:03AM 56.6886 36.0307 312° West  Level FlightAware Approximate
03:04AM 56.7631 35.8763 311° West  Level FlightAware Approximate
03:05AM 56.8375 35.7212 311° West  Level FlightAware Approximate
03:06AM 56.9116 35.5655 311° West  Level FlightAware Approximate
03:07AM 56.9856 35.4092 311° West  Level FlightAware Approximate
03:08AM 57.0594 35.2523 311° West  Level FlightAware Approximate
03:09AM 57.1329 35.0948 311° West  Level FlightAware Approximate
03:10AM 57.2063 34.9366 311° West  Level FlightAware Approximate
03:11AM 57.2795 34.7778 310° West  Level FlightAware Approximate
03:12AM 57.3525 34.6184 310° West  Level FlightAware Approximate
03:13AM 57.4252 34.4583 310° West  Level FlightAware Approximate
03:14AM 57.4978 34.2976 310° West  Level FlightAware Approximate
03:15AM 57.5164 34.2498 308° West  Level FlightAware Approximate
03:16AM 57.5863 34.0846 308° West  Level FlightAware Approximate
03:17AM 57.6559 33.9188 308° West  Level FlightAware Approximate
03:18AM 57.7254 33.7523 308° West  Level FlightAware Approximate
03:19AM 57.7946 33.5853 308° West  Level FlightAware Approximate
03:20AM 57.8636 33.4175 308° West  Level FlightAware Approximate
03:21AM 57.9324 33.2491 308° West  Level FlightAware Approximate
03:22AM 58.0010 33.0801 307° West  Level FlightAware Approximate
03:23AM 58.0693 32.9105 307° West  Level FlightAware Approximate
03:24AM 58.1374 32.7401 307° West  Level FlightAware Approximate
03:25AM 58.2053 32.5692 307° West  Level FlightAware Approximate
03:26AM 58.2730 32.3975 307° West  Level FlightAware Approximate
03:27AM 58.3404 32.2253 307° West  Level FlightAware Approximate
03:28AM 58.4076 32.0523 307° West  Level FlightAware Approximate
03:29AM 58.4745 31.8787 306° West  Level FlightAware Approximate
03:30AM 58.5413 31.7045 306° West  Level FlightAware Approximate
03:31AM 58.6078 31.5296 306° West  Level FlightAware Approximate
03:32AM 58.6743 31.3544 306° West  Level FlightAware Approximate
03:33AM 58.7406 31.1785 306° West  Level FlightAware Approximate
03:34AM 58.8066 31.0020 306° West  Level FlightAware Approximate
03:35AM 58.8724 30.8248 306° West  Level FlightAware Approximate
03:36AM 58.9380 30.6469 306° West  Level FlightAware Approximate
03:37AM 59.0033 30.4683 305° West  Level FlightAware Approximate
03:38AM 59.0683 30.2890 305° West  Level FlightAware Approximate
03:39AM 59.1331 30.1091 305° West  Level FlightAware Approximate
03:40AM 59.1977 29.9285 305° West  Level FlightAware Approximate
03:41AM 59.2620 29.7472 305° West  Level FlightAware Approximate
03:42AM 59.3260 29.5652 305° West  Level FlightAware Approximate
03:43AM 59.3899 29.3826 305° West  Level FlightAware Approximate
03:44AM 59.4534 29.1992 304° West  Level FlightAware Approximate
03:45AM 59.5167 29.0152 304° West  Level FlightAware Approximate
03:46AM 59.5797 28.8305 304° West  Level FlightAware Approximate
03:47AM 59.6425 28.6450 304° West  Level FlightAware Approximate
03:48AM 59.7050 28.4589 304° West  Level FlightAware Approximate
03:49AM 59.7672 28.2721 304° West  Level FlightAware Approximate
03:50AM 59.8292 28.0846 303° West  Level FlightAware Approximate
03:51AM 59.8909 27.8964 303° West  Level FlightAware Approximate
03:52AM 59.9524 27.7075 303° West  Level FlightAware Approximate
03:53AM 60.0135 27.5179 303° West  Level FlightAware Approximate
03:54AM 60.0744 27.3276 303° West  Level FlightAware Approximate
03:55AM 60.1350 27.1366 303° West  Level FlightAware Approximate
03:56AM 60.1954 26.9449 302° West  Level FlightAware Approximate
03:57AM 60.2555 26.7525 302° West  Level FlightAware Approximate
03:58AM 60.3152 26.5593 302° West  Level FlightAware Approximate
03:59AM 60.3747 26.3655 302° West  Level FlightAware Approximate
04:00AM 60.4340 26.1710 302° West  Level FlightAware Approximate
04:01AM 60.4929 25.9757 302° West  Level FlightAware Approximate
04:02AM 60.5516 25.7798 301° West  Level FlightAware Approximate
04:03AM 60.6099 25.5831 301° West  Level FlightAware Approximate
04:04AM 60.6680 25.3857 301° West  Level FlightAware Approximate
04:05AM 60.7259 25.1878 301° West  Level FlightAware Approximate
04:06AM 60.7835 24.9892 301° West  Level FlightAware Approximate
04:07AM 60.8409 24.7899 301° West  Level FlightAware Approximate
04:08AM 60.8980 24.5898 300° West  Level FlightAware Approximate
04:09AM 60.9547 24.3891 300° West  Level FlightAware Approximate
04:10AM 61.0112 24.1876 300° West  Level FlightAware Approximate
04:11AM 61.0673 23.9855 300° West  Level FlightAware Approximate
04:12AM 61.1232 23.7826 300° West  Level FlightAware Approximate
04:13AM 61.1788 23.5790 300° West  Level FlightAware Approximate
04:14AM 61.2340 23.3746 299° West  Level FlightAware Approximate
04:15AM 61.2889 23.1696 299° West  Level FlightAware Approximate
04:16AM 61.3436 22.9638 299° West  Level FlightAware Approximate
04:17AM 61.3979 22.7573 299° West  Level FlightAware Approximate
04:18AM 61.4519 22.5501 299° West  Level FlightAware Approximate
04:19AM 61.5056 22.3422 298° West  Level FlightAware Approximate
04:20AM 61.5589 22.1336 298° West  Level FlightAware Approximate
04:21AM 61.6120 21.9242 298° West  Level FlightAware Approximate
04:22AM 61.6647 21.7142 298° West  Level FlightAware Approximate
04:23AM 61.7171 21.5034 298° West  Level FlightAware Approximate
04:24AM 61.7692 21.2919 298° West  Level FlightAware Approximate
04:25AM 61.8209 21.0797 297° West  Level FlightAware Approximate
04:26AM 61.8724 20.8668 297° West  Level FlightAware Approximate
04:27AM 61.9235 20.6531 297° West  Level FlightAware Approximate
04:28AM 61.9742 20.4388 297° West  Level FlightAware Approximate
04:29AM 62.0247 20.2237 297° West  Level FlightAware Approximate
04:30AM 62.0748 20.0079 296° West  Level FlightAware Approximate
04:31AM 62.1245 19.7914 296° West  Level FlightAware Approximate
04:32AM 62.1739 19.5742 296° West  Level FlightAware Approximate
04:33AM 62.2230 19.3563 296° West  Level FlightAware Approximate
04:34AM 62.2718 19.1377 296° West  Level FlightAware Approximate
04:35AM 62.3201 18.9184 295° West  Level FlightAware Approximate
04:36AM 62.3682 18.6984 295° West  Level FlightAware Approximate
04:37AM 62.4159 18.4776 295° West  Level FlightAware Approximate
04:38AM 62.4632 18.2562 295° West  Level FlightAware Approximate
04:39AM 62.5102 18.0341 295° West  Level FlightAware Approximate
04:40AM 62.5569 17.8113 295° West  Level FlightAware Approximate
04:41AM 62.6031 17.5877 294° West  Level FlightAware Approximate
04:42AM 62.6491 17.3635 294° West  Level FlightAware Approximate
04:43AM 62.6946 17.1386 294° West  Level FlightAware Approximate
04:44AM 62.7398 16.9130 294° West  Level FlightAware Approximate
04:45AM 62.7847 16.6867 294° West  Level FlightAware Approximate
04:46AM 62.8292 16.4597 293° West  Level FlightAware Approximate
04:47AM 62.8733 16.2320 293° West  Level FlightAware Approximate
04:48AM 62.9170 16.0037 293° West  Level FlightAware Approximate
04:49AM 62.9604 15.7747 293° West  Level FlightAware Approximate
04:50AM 63.0034 15.5450 292° West  Level FlightAware Approximate
04:51AM 63.0460 15.3146 292° West  Level FlightAware Approximate
04:52AM 63.0883 15.0835 292° West  Level FlightAware Approximate
04:53AM 63.1301 14.8518 292° West  Level FlightAware Approximate
04:54AM 63.1716 14.6194 292° West  Level FlightAware Approximate
04:55AM 63.2128 14.3864 291° West  Level FlightAware Approximate
04:56AM 63.2535 14.1526 291° West  Level FlightAware Approximate
04:57AM 63.2938 13.9183 291° West  Level FlightAware Approximate
04:58AM 63.3338 13.6833 291° West  Level FlightAware Approximate
04:59AM 63.3734 13.4476 291° West  Level FlightAware Approximate
05:00AM 63.4126 13.2113 290° West  Level FlightAware Approximate
05:01AM 63.4514 12.9743 290° West  Level FlightAware Approximate
05:02AM 63.4898 12.7367 290° West  Level FlightAware Approximate
05:03AM 63.5278 12.4984 290° West  Level FlightAware Approximate
05:04AM 63.5654 12.2596 290° West  Level FlightAware Approximate
05:05AM 63.6026 12.0201 289° West  Level FlightAware Approximate
05:06AM 63.6394 11.7799 289° West  Level FlightAware Approximate
05:07AM 63.6758 11.5392 289° West  Level FlightAware Approximate
05:08AM 63.7118 11.2978 289° West  Level FlightAware Approximate
05:09AM 63.7474 11.0559 288° West  Level FlightAware Approximate
05:10AM 63.7826 10.8133 288° West  Level FlightAware Approximate
05:11AM 63.8174 10.5701 288° West  Level FlightAware Approximate
05:12AM 63.8518 10.3263 288° West  Level FlightAware Approximate
05:13AM 63.8858 10.0819 288° West  Level FlightAware Approximate
05:14AM 63.9193 9.8370 287° West  Level FlightAware Approximate
05:15AM 63.9525 9.5914 287° West  Level FlightAware Approximate
05:16AM 63.9852 9.3453 287° West  Level FlightAware Approximate
05:17AM 64.0175 9.0986 287° West  Level FlightAware Approximate
05:18AM 64.0494 8.8513 287° West  Level FlightAware Approximate
05:19AM 64.0809 8.6035 286° West  Level FlightAware Approximate
05:20AM 64.1119 8.3551 286° West  Level FlightAware Approximate
05:21AM 64.1425 8.1062 286° West  Level FlightAware Approximate
05:22AM 64.1727 7.8567 286° West  Level FlightAware Approximate
05:23AM 64.2025 7.6067 285° West  Level FlightAware Approximate
05:24AM 64.2318 7.3561 285° West  Level FlightAware Approximate
05:25AM 64.2607 7.1051 285° West  Level FlightAware Approximate
05:26AM 64.2892 6.8534 285° West  Level FlightAware Approximate
05:27AM 64.3173 6.6013 285° West  Level FlightAware Approximate
05:28AM 64.3449 6.3487 284° West  Level FlightAware Approximate
05:29AM 64.3721 6.0956 284° West  Level FlightAware Approximate
05:30AM 64.3988 5.8419 284° West  Level FlightAware Approximate
05:31AM 64.4251 5.5878 284° West  Level FlightAware Approximate
05:32AM 64.4510 5.3332 283° West  Level FlightAware Approximate
05:33AM 64.4764 5.0781 283° West  Level FlightAware Approximate
05:34AM 64.5014 4.8226 283° West  Level FlightAware Approximate
05:35AM 64.5259 4.5665 283° West  Level FlightAware Approximate
05:36AM 64.5500 4.3101 282° West  Level FlightAware Approximate
05:37AM 64.5736 4.0532 282° West  Level FlightAware Approximate
05:38AM 64.5968 3.7958 282° West  Level FlightAware Approximate
05:39AM 64.6196 3.5380 282° West  Level FlightAware Approximate
05:40AM 64.6419 3.2798 282° West  Level FlightAware Approximate
05:41AM 64.6637 3.0211 281° West  Level FlightAware Approximate
05:42AM 64.6851 2.7620 281° West  Level FlightAware Approximate
05:43AM 64.7060 2.5026 281° West  Level FlightAware Approximate
05:44AM 64.7265 2.2427 281° West  Level FlightAware Approximate
05:45AM 64.7466 1.9825 280° West  Level FlightAware Approximate
05:46AM 64.7661 1.7218 280° West  Level FlightAware Approximate
05:47AM 64.7852 1.4608 280° West  Level FlightAware Approximate
05:48AM 64.8039 1.1994 280° West  Level FlightAware Approximate
05:49AM 64.8221 0.9377 279° West  Level FlightAware Approximate
05:50AM 64.8398 0.6756 279° West  Level FlightAware Approximate
05:51AM 64.8571 0.4132 279° West  Level FlightAware Approximate
05:52AM 64.8739 0.1505 279° West  Level FlightAware Approximate
05:53AM 64.8903 -0.1126 278° West  Level FlightAware Approximate
05:54AM 64.9061 -0.3760 278° West  Level FlightAware Approximate
05:55AM 64.9215 -0.6397 278° West  Level FlightAware Approximate
05:56AM 64.9364 -0.9038 278° West  Level FlightAware Approximate
05:57AM 64.9509 -1.1681 277° West  Level FlightAware Approximate
05:58AM 64.9649 -1.4326 277° West  Level FlightAware Approximate
05:59AM 64.9784 -1.6975 277° West  Level FlightAware Approximate
06:00AM 64.9914 -1.9626 277° West  Level FlightAware Approximate
06:01AM 65.0040 -2.2280 277° West  Level FlightAware Approximate
06:02AM 65.0161 -2.4936 276° West  Level FlightAware Approximate
06:03AM 65.0277 -2.7594 276° West  Level FlightAware Approximate
06:04AM 65.0389 -3.0255 276° West  Level FlightAware Approximate
06:05AM 65.0496 -3.2918 276° West  Level FlightAware Approximate
06:06AM 65.0598 -3.5583 275° West  Level FlightAware Approximate
06:07AM 65.0695 -3.8250 275° West  Level FlightAware Approximate
06:08AM 65.0788 -4.0919 275° West  Level FlightAware Approximate
06:09AM 65.0876 -4.3590 275° West  Level FlightAware Approximate
06:10AM 65.0959 -4.6262 274° West  Level FlightAware Approximate
06:11AM 65.1037 -4.8937 274° West  Level FlightAware Approximate
06:12AM 65.1111 -5.1612 274° West  Level FlightAware Approximate
06:13AM 65.1180 -5.4289 274° West  Level FlightAware Approximate
06:14AM 65.1244 -5.6968 273° West  Level FlightAware Approximate
06:15AM 65.1303 -5.9647 273° West  Level FlightAware Approximate
06:16AM 65.1357 -6.2328 273° West  Level FlightAware Approximate
06:17AM 65.1407 -6.5010 273° West  Level FlightAware Approximate
06:18AM 65.1452 -6.7693 272° West  Level FlightAware Approximate
06:19AM 65.1492 -7.0376 272° West  Level FlightAware Approximate
06:20AM 65.1527 -7.3061 272° West  Level FlightAware Approximate
06:21AM 65.1558 -7.5746 272° West  Level FlightAware Approximate
06:22AM 65.1584 -7.8432 271° West  Level FlightAware Approximate
06:23AM 65.1605 -8.1118 271° West  Level FlightAware Approximate
06:24AM 65.1621 -8.3804 271° West  Level FlightAware Approximate
06:25AM 65.1632 -8.6491 271° West  Level FlightAware Approximate
06:26AM 65.1638 -8.9178 270° West  Level FlightAware Approximate
06:27AM 65.1640 -9.1865 270° West  Level FlightAware Approximate
06:28AM 65.1637 -9.4552 270° West  Level FlightAware Approximate
06:29AM 65.1629 -9.7239 270° West  Level FlightAware Approximate
06:30AM 65.1616 -9.9926 269° West  Level FlightAware Approximate
06:31AM 65.1599 -10.2612 269° West  Level FlightAware Approximate
06:32AM 65.1577 -10.5298 269° West  Level FlightAware Approximate
06:33AM 65.1550 -10.7984 269° West  Level FlightAware Approximate
06:34AM 65.1518 -11.0668 269° West  Level FlightAware Approximate
06:35AM 65.1481 -11.3353 268° West  Level FlightAware Approximate
06:36AM 65.1439 -11.6036 268° West  Level FlightAware Approximate
06:37AM 65.1393 -11.8719 268° West  Level FlightAware Approximate
06:38AM 65.1342 -12.1400 268° West  Level FlightAware Approximate
06:39AM 65.1286 -12.4081 267° West  Level FlightAware Approximate
06:40AM 65.1226 -12.6760 267° West  Level FlightAware Approximate
06:41AM 65.1160 -12.9438 267° West  Level FlightAware Approximate
06:42AM 65.1090 -13.2115 267° West  Level FlightAware Approximate
06:43AM 65.1015 -13.4790 266° West  Level FlightAware Approximate
06:44AM 65.0935 -13.7464 266° West  Level FlightAware Approximate
06:45AM 65.0851 -14.0135 266° West  Level FlightAware Approximate
06:46AM 65.0761 -14.2806 266° West  Level FlightAware Approximate
06:47AM 65.0667 -14.5474 265° West  Level FlightAware Approximate
06:48AM 65.0569 -14.8141 265° West  Level FlightAware Approximate
06:49AM 65.0465 -15.0805 265° West  Level FlightAware Approximate
06:50AM 65.0357 -15.3467 265° West  Level FlightAware Approximate
06:51AM 65.0244 -15.6128 264° West  Level FlightAware Approximate
06:52AM 65.0126 -15.8785 264° West  Level FlightAware Approximate
06:53AM 65.0004 -16.1441 264° West  Level FlightAware Approximate
06:54AM 64.9877 -16.4094 264° West  Level FlightAware Approximate
06:55AM 64.9745 -16.6744 263° West  Level FlightAware Approximate
06:56AM 64.9608 -16.9392 263° West  Level FlightAware Approximate
06:57AM 64.9467 -17.2037 263° West  Level FlightAware Approximate
06:58AM 64.9321 -17.4679 263° West  Level FlightAware Approximate
06:59AM 64.9171 -17.7318 262° West  Level FlightAware Approximate
07:00AM 64.9016 -17.9955 262° West  Level FlightAware Approximate
07:01AM 64.8856 -18.2588 262° West  Level FlightAware Approximate
07:02AM 64.8691 -18.5218 262° West  Level FlightAware Approximate
07:03AM 64.8522 -18.7844 261° West  Level FlightAware Approximate
07:04AM 64.8348 -19.0468 261° West  Level FlightAware Approximate
07:05AM 64.8170 -19.3088 261° West  Level FlightAware Approximate
07:06AM 64.7987 -19.5704 261° West  Level FlightAware Approximate
07:07AM 64.7799 -19.8317 261° West  Level FlightAware Approximate
07:08AM 64.7607 -20.0926 260° West  Level FlightAware Approximate
07:09AM 64.7410 -20.3531 260° West  Level FlightAware Approximate
07:10AM 64.7209 -20.6133 260° West  Level FlightAware Approximate
07:11AM 64.7003 -20.8731 260° West  Level FlightAware Approximate
07:12AM 64.6793 -21.1324 259° West  Level FlightAware Approximate
07:13AM 64.6578 -21.3914 259° West  Level FlightAware Approximate
07:14AM 64.6358 -21.6499 259° West  Level FlightAware Approximate
07:15AM 64.6134 -21.9081 259° West  Level FlightAware Approximate
07:16AM 64.5906 -22.1658 258° West  Level FlightAware Approximate
07:17AM 64.5673 -22.4230 258° West  Level FlightAware Approximate
07:18AM 64.5435 -22.6798 258° West  Level FlightAware Approximate
07:19AM 64.5193 -22.9362 258° West  Level FlightAware Approximate
07:20AM 64.4947 -23.1921 258° West  Level FlightAware Approximate
07:21AM 64.4696 -23.4475 257° West  Level FlightAware Approximate
07:22AM 64.4441 -23.7025 257° West  Level FlightAware Approximate
07:23AM 64.4182 -23.9570 257° West  Level FlightAware Approximate
07:24AM 64.3917 -24.2110 257° West  Level FlightAware Approximate
07:25AM 64.3649 -24.4645 256° West  Level FlightAware Approximate
07:26AM 64.3376 -24.7175 256° West  Level FlightAware Approximate
07:27AM 64.3099 -24.9700 256° West  Level FlightAware Approximate
07:28AM 64.2818 -25.2220 256° West  Level FlightAware Approximate
07:29AM 64.2532 -25.4735 255° West  Level FlightAware Approximate
07:30AM 64.2242 -25.7244 255° West  Level FlightAware Approximate
07:31AM 64.1948 -25.9749 255° West  Level FlightAware Approximate
07:32AM 64.1649 -26.2248 255° West  Level FlightAware Approximate
07:33AM 64.1346 -26.4741 255° West  Level FlightAware Approximate
07:34AM 64.1039 -26.7229 254° West  Level FlightAware Approximate
07:35AM 64.0727 -26.9712 254° West  Level FlightAware Approximate
07:36AM 64.0412 -27.2189 254° West  Level FlightAware Approximate
07:37AM 64.0092 -27.4660 254° West  Level FlightAware Approximate
07:38AM 63.9768 -27.7125 253° West  Level FlightAware Approximate
07:39AM 63.9440 -27.9585 253° West  Level FlightAware Approximate
07:40AM 63.9108 -28.2039 253° West  Level FlightAware Approximate
07:41AM 63.8771 -28.4488 253° West  Level FlightAware Approximate
07:42AM 63.8430 -28.6930 253° West  Level FlightAware Approximate
07:43AM 63.8086 -28.9366 252° West  Level FlightAware Approximate
07:44AM 63.7737 -29.1797 252° West  Level FlightAware Approximate
07:45AM 63.7384 -29.4221 252° West  Level FlightAware Approximate
07:46AM 63.7027 -29.6639 252° West  Level FlightAware Approximate
07:47AM 63.6666 -29.9051 251° West  Level FlightAware Approximate
07:48AM 63.6301 -30.1458 251° West  Level FlightAware Approximate
07:49AM 63.5932 -30.3857 251° West  Level FlightAware Approximate
07:50AM 63.5559 -30.6251 251° West  Level FlightAware Approximate
07:51AM 63.5182 -30.8638 251° West  Level FlightAware Approximate
07:52AM 63.4801 -31.1019 250° West  Level FlightAware Approximate
07:53AM 63.4416 -31.3393 250° West  Level FlightAware Approximate
07:54AM 63.4027 -31.5762 250° West  Level FlightAware Approximate
07:55AM 63.3635 -31.8123 250° West  Level FlightAware Approximate
07:56AM 63.3238 -32.0479 250° West  Level FlightAware Approximate
07:57AM 63.2837 -32.2827 249° West  Level FlightAware Approximate
07:58AM 63.2433 -32.5169 249° West  Level FlightAware Approximate
07:59AM 63.2025 -32.7505 249° West  Level FlightAware Approximate
08:00AM 63.1613 -32.9834 249° West  Level FlightAware Approximate
08:01AM 63.1197 -33.2156 248° West  Level FlightAware Approximate
08:02AM 63.0778 -33.4472 248° West  Level FlightAware Approximate
08:03AM 63.0354 -33.6781 248° West  Level FlightAware Approximate
08:04AM 62.9927 -33.9083 248° West  Level FlightAware Approximate
08:05AM 62.9496 -34.1379 248° West  Level FlightAware Approximate
08:06AM 62.9062 -34.3667 247° West  Level FlightAware Approximate
08:07AM 62.8623 -34.5949 247° West  Level FlightAware Approximate
08:08AM 62.8181 -34.8224 247° West  Level FlightAware Approximate
08:09AM 62.7736 -35.0492 247° West  Level FlightAware Approximate
08:10AM 62.7287 -35.2754 247° West  Level FlightAware Approximate
08:11AM 62.6834 -35.5008 246° West  Level FlightAware Approximate
08:12AM 62.6376 -35.7254 246° West  Level FlightAware Approximate
08:13AM 62.5913 -35.9492 246° West  Level FlightAware Approximate
08:14AM 62.5446 -36.1723 246° West  Level FlightAware Approximate
08:15AM 62.4976 -36.3946 245° Southwest  Level FlightAware Approximate
08:16AM 62.4503 -36.6163 245° Southwest  Level FlightAware Approximate
08:17AM 62.4026 -36.8373 245° Southwest  Level FlightAware Approximate
08:18AM 62.3545 -37.0576 245° Southwest  Level FlightAware Approximate
08:19AM 62.3061 -37.2771 245° Southwest  Level FlightAware Approximate
08:20AM 62.2574 -37.4960 245° Southwest  Level FlightAware Approximate
08:21AM 62.2083 -37.7141 244° Southwest  Level FlightAware Approximate
08:21AM 66.2167 -53.5500 243° Southwest 480 552 35,000  Level Gander Center
08:22AM 62.1589 -37.9316 244° Southwest  Level FlightAware Approximate
08:22AM 66.1167 -53.7500 219° Southwest 480 552 35,000  Level Gander Center
08:23AM 62.1091 -38.1483 244° Southwest  Level FlightAware Approximate
08:23AM 66.0000 -53.9500 215° Southwest 480 552 35,000  Level Gander Center
08:24AM 62.0590 -38.3643 244° Southwest  Level FlightAware Approximate
08:24AM 65.9000 -54.1333 217° Southwest 480 552 35,000  Level Gander Center
08:25AM 62.0086 -38.5796 244° Southwest  Level FlightAware Approximate
08:25AM 65.8000 -54.3333 219° Southwest 480 552 35,000  Level Gander Center
08:26AM 61.9578 -38.7942 243° Southwest  Level FlightAware Approximate
08:26AM 65.6833 -54.5167 213° Southwest 480 552 35,000  Level Gander Center
08:27AM 65.5833 -54.7000 217° Southwest 480 552 35,000  Level Gander Center
08:28AM 65.4667 -54.8833 213° Southwest 480 552 35,000  Level Gander Center
08:29AM 65.3667 -55.0667 217° Southwest 480 552 35,000  Level Gander Center
08:30AM 65.2500 -55.2500 213° Southwest 480 552 35,000  Level Gander Center
08:31AM 65.1667 -55.4333 223° Southwest 480 552 35,000  Level Gander Center
08:32AM 65.0500 -55.5667 206° Southwest 480 552 35,000  Level Gander Center
08:33AM 64.9333 -55.7500 214° Southwest 480 552 35,000  Level Gander Center
08:34AM 64.8333 -55.9167 215° Southwest 480 552 35,000  Level Gander Center
08:35AM 64.7167 -56.1000 214° Southwest 480 552 35,000  Level Gander Center
08:36AM 64.6500 -56.1500 198° South 460 529 35,000  Level Montreal Center
08:37AM 64.5500 -56.3000 213° Southwest 470 541 35,000  Level Montreal Center
08:38AM 64.4333 -56.4667 212° Southwest 480 552 35,000  Level Montreal Center
08:39AM 64.3167 -56.6667 217° Southwest 470 541 35,000  Level Montreal Center
08:40AM 64.2167 -56.8167 213° Southwest 480 552 35,000  Level Montreal Center
08:41AM 64.1000 -56.9667 209° Southwest 470 541 35,000  Level Montreal Center
08:42AM 64.0000 -57.1500 219° Southwest 470 541 35,000  Level Montreal Center
08:43AM 63.9000 -57.3500 221° Southwest 470 541 35,000  Level Montreal Center
08:44AM 63.8000 -57.5333 219° Southwest 470 541 35,000  Level Montreal Center
08:45AM 63.7000 -57.7167 219° Southwest 470 541 35,000  Level Montreal Center
08:46AM 63.6000 -57.8500 211° Southwest 470 541 35,000  Level Montreal Center
08:47AM 63.5000 -58.0333 219° Southwest 470 541 35,000  Level Montreal Center
08:48AM 63.3833 -58.2167 215° Southwest 470 541 35,000  Level Montreal Center
08:49AM 63.2833 -58.3833 217° Southwest 470 541 35,000  Level Montreal Center
08:50AM 63.1833 -58.5667 220° Southwest 470 541 35,000  Level Montreal Center
08:51AM 63.0833 -58.7333 217° Southwest 460 529 35,000  Level Montreal Center
08:52AM 62.9833 -58.9167 220° Southwest 470 541 35,000  Level Montreal Center
08:53AM 62.8667 -59.0833 213° Southwest 470 541 35,000  Level Montreal Center
08:54AM 62.7667 -59.2500 217° Southwest 470 541 35,000  Level Montreal Center
08:55AM 62.6667 -59.4167 217° Southwest 470 541 35,000  Level Montreal Center
08:56AM 62.5667 -59.5833 218° Southwest 470 541 35,000  Level Montreal Center
08:57AM 62.4500 -59.7667 216° Southwest 460 529 35,000  Level Montreal Center
08:58AM 62.3500 -59.9333 218° Southwest 460 529 35,100 240 Climbing Montreal Center
08:59AM 62.2500 -60.1000 218° Southwest 460 529 35,500 420 Climbing Montreal Center
09:00AM 62.1500 -60.2500 215° Southwest 460 529 36,000 240 Climbing Montreal Center
09:01AM 62.0333 -60.4167 214° Southwest 470 541 36,000  Level Montreal Center
09:02AM 61.9333 -60.5833 218° Southwest 470 541 36,000  Level Montreal Center
09:03AM 61.8333 -60.7000 209° Southwest 460 529 36,000  Level Montreal Center
09:04AM 61.7167 -60.8667 214° Southwest 460 529 36,000  Level Montreal Center
09:05AM 61.6333 -61.0167 221° Southwest 460 529 36,000  Level Montreal Center
09:06AM 61.5000 -61.1833 211° Southwest 460 529 36,000  Level Montreal Center
09:07AM 61.4167 -61.3333 221° Southwest 470 541 36,000  Level Montreal Center
09:08AM 61.3000 -61.4833 212° Southwest 470 541 36,000  Level Montreal Center
09:09AM 61.2000 -61.6500 219° Southwest 460 529 36,000  Level Montreal Center
09:10AM 61.1000 -61.8000 216° Southwest 460 529 36,000  Level Montreal Center
09:11AM 60.9833 -61.9500 212° Southwest 470 541 36,000  Level Montreal Center
09:12AM 60.8667 -62.1000 212° Southwest 470 541 36,000  Level Montreal Center
09:13AM 60.7667 -62.2500 216° Southwest 470 541 36,000  Level Montreal Center
09:14AM 60.6667 -62.4000 216° Southwest 470 541 36,000  Level Montreal Center
09:15AM 60.5500 -62.5500 212° Southwest 470 541 36,000  Level Montreal Center
09:16AM 60.4333 -62.7000 212° Southwest 470 541 36,000  Level Montreal Center
09:17AM 60.3333 -62.8500 217° Southwest 470 541 36,000  Level Montreal Center
09:18AM 60.2167 -62.9833 210° Southwest 470 541 36,000  Level Montreal Center
09:19AM 60.1167 -63.1333 217° Southwest 470 541 36,000  Level Montreal Center
09:20AM 60.0167 -63.2833 217° Southwest 470 541 36,000  Level Montreal Center
09:21AM 59.8833 -63.3833 201° Southwest 470 541 36,000  Level Montreal Center
09:22AM 59.7833 -63.5333 217° Southwest 470 541 36,000  Level Montreal Center
09:23AM 59.6833 -63.7000 220° Southwest 470 541 36,000  Level Montreal Center
09:24AM 59.5500 -63.8500 210° Southwest 470 541 36,000  Level Montreal Center
09:25AM 59.4500 -63.9500 207° Southwest 470 541 36,000  Level Montreal Center
09:26AM 59.3333 -64.0833 210° Southwest 470 541 36,000  Level Montreal Center
09:27AM 59.2333 -64.2667 223° Southwest 470 541 36,000  Level Montreal Center
09:28AM 59.1500 -64.4167 223° Southwest 460 529 36,000  Level Montreal Center
09:29AM 59.0667 -64.6167 231° Southwest 460 529 36,000  Level Montreal Center
09:30AM 58.9500 -64.7833 216° Southwest 460 529 36,000  Level Montreal Center
09:31AM 58.8667 -64.9333 223° Southwest 470 541 36,000  Level Montreal Center
09:32AM 58.7667 -65.1333 226° Southwest 470 541 36,000  Level Montreal Center
09:33AM 58.6833 -65.3000 226° Southwest 470 541 36,000  Level Montreal Center
09:34AM 58.5667 -65.4500 214° Southwest 470 541 36,000  Level Montreal Center
09:35AM 58.4833 -65.6500 231° Southwest 470 541 36,000  Level Montreal Center
09:36AM 58.3833 -65.8000 218° Southwest 470 541 36,000  Level Montreal Center
09:37AM 58.2833 -65.9500 218° Southwest 470 541 36,000  Level Montreal Center
09:38AM 58.1833 -66.1500 227° Southwest 470 541 36,000  Level Montreal Center
09:39AM 58.1000 -66.3000 224° Southwest 470 541 36,000  Level Montreal Center
09:40AM 57.9833 -66.4500 214° Southwest 460 529 36,000  Level Montreal Center
09:41AM 57.9000 -66.6333 230° Southwest 460 529 36,000  Level Montreal Center
09:42AM 57.8167 -66.7833 224° Southwest 460 529 36,000  Level Montreal Center
09:43AM 57.7000 -66.9333 215° Southwest 460 529 36,000  Level Montreal Center
09:44AM 57.6000 -67.1000 222° Southwest 470 541 36,000  Level Montreal Center
09:46AM 57.3667 -67.3333 208° Southwest 470 541 36,000  Level Montreal Center
09:47AM 57.2667 -67.4833 219° Southwest 460 529 36,000  Level Montreal Center
09:48AM 57.1500 -67.6000 208° Southwest 460 529 36,000  Level Montreal Center
09:49AM 57.0500 -67.7167 212° Southwest 470 541 36,000  Level Montreal Center
09:50AM 56.9333 -67.8333 209° Southwest 460 529 36,000  Level Montreal Center
09:51AM 56.8167 -67.9833 215° Southwest 460 529 36,000  Level Montreal Center
09:52AM 56.7167 -68.1000 213° Southwest 460 529 36,000  Level Montreal Center
09:53AM 56.6000 -68.2167 209° Southwest 460 529 36,000  Level Montreal Center
09:54AM 56.4833 -68.3333 209° Southwest 460 529 36,000  Level Montreal Center
09:55AM 56.4000 -68.4333 214° Southwest 460 529 36,000  Level Montreal Center
09:56AM 56.2833 -68.5833 216° Southwest 460 529 36,000  Level Montreal Center
09:57AM 56.1833 -68.7000 213° Southwest 460 529 36,000  Level Montreal Center
09:58AM 56.0500 -68.8167 206° Southwest 460 529 36,000  Level Montreal Center
09:59AM 55.9500 -68.9500 217° Southwest 460 529 36,000  Level Montreal Center
10:00AM 55.8333 -69.0667 209° Southwest 460 529 36,000  Level Montreal Center
10:01AM 55.7333 -69.1667 209° Southwest 460 529 36,000  Level Montreal Center
10:02AM 55.6167 -69.2833 209° Southwest 460 529 36,000  Level Montreal Center
10:03AM 55.5000 -69.4167 213° Southwest 460 529 36,000  Level Montreal Center
10:04AM 55.4000 -69.5167 210° Southwest 460 529 36,000  Level Montreal Center
10:05AM 55.2833 -69.6333 210° Southwest 460 529 36,000  Level Montreal Center
10:06AM 55.1667 -69.7333 206° Southwest 460 529 36,000  Level Montreal Center
10:07AM 55.0667 -69.8667 217° Southwest 460 529 36,000  Level Montreal Center
10:08AM 54.9667 -69.9500 206° Southwest 450 518 36,000  Level Montreal Center
10:09AM 54.8333 -70.0833 210° Southwest 450 518 36,000  Level Montreal Center
10:10AM 54.7167 -70.1833 206° Southwest 450 518 36,000  Level Montreal Center
10:11AM 54.6167 -70.2833 210° Southwest 450 518 36,000  Level Montreal Center
10:12AM 54.5167 -70.4167 218° Southwest 460 529 36,000  Level Montreal Center
10:13AM 54.4000 -70.5167 207° Southwest 450 518 36,000  Level Montreal Center
10:14AM 54.2000 -70.7000 208° Southwest 460 529 36,000  Level Montreal Center
10:15AM 54.0833 -70.8000 207° Southwest 450 518 36,000  Level Montreal Center
10:16AM 53.9667 -70.9167 210° Southwest 450 518 36,000  Level Montreal Center
10:17AM 53.8833 -71.0167 215° Southwest 450 518 36,000  Level Montreal Center
10:18AM 53.7667 -71.1167 207° Southwest 460 529 36,000  Level Montreal Center
10:19AM 53.6333 -71.2500 211° Southwest 460 529 36,000  Level Montreal Center
10:20AM 53.5333 -71.3500 211° Southwest 450 518 36,000  Level Montreal Center
10:21AM 53.4167 -71.4333 203° Southwest 450 518 36,000  Level Montreal Center
10:22AM 53.3000 -71.5333 207° Southwest 450 518 36,000  Level Montreal Center
10:23AM 53.2000 -71.6333 211° Southwest 450 518 36,000  Level Montreal Center
10:24AM 53.0833 -71.7500 211° Southwest 450 518 36,000  Level Montreal Center
10:25AM 52.9833 -71.8500 211° Southwest 460 529 36,000  Level Montreal Center
10:26AM 52.8667 -71.9500 207° Southwest 460 529 36,000  Level Montreal Center
10:27AM 52.7500 -72.0333 203° Southwest 460 529 36,000  Level Montreal Center
10:28AM 52.6667 -72.1667 224° Southwest 460 529 36,000  Level Gander Center
10:29AM 52.5500 -72.2500 203° Southwest 460 529 36,000  Level Gander Center
10:30AM 52.4333 -72.3667 211° Southwest 460 529 36,000  Level Gander Center
10:31AM 52.3167 -72.4500 204° Southwest 460 529 36,000  Level Gander Center
10:32AM 52.2167 -72.5500 212° Southwest 460 529 36,000  Level Gander Center
10:33AM 52.1000 -72.6667 212° Southwest 460 529 36,000  Level Gander Center
10:34AM 51.9667 -72.7500 201° Southwest 460 529 36,000  Level Gander Center
10:35AM 51.8500 -72.7333 175° South 460 529 36,000  Level Gander Center
10:36AM 51.7167 -72.7667 189° South 460 529 36,000  Level Gander Center
10:37AM 51.6000 -72.7833 185° South 470 541 36,000  Level Gander Center
10:38AM 51.4667 -72.8000 184° South 470 541 36,000  Level Gander Center
10:39AM 51.3333 -72.8167 184° South 470 541 36,000  Level Gander Center
10:40AM 51.2000 -72.8500 189° South 470 541 36,000  Level Gander Center
10:41AM 51.0833 -72.8667 185° South 460 529 36,000  Level Gander Center
10:42AM 50.9500 -72.8667 180° South 460 529 36,000  Level Gander Center
10:43AM 50.8333 -72.8833 185° South 460 529 36,000  Level Gander Center
10:44AM 50.7167 -72.9000 185° South 450 518 36,000  Level Gander Center
10:45AM 50.5833 -72.9333 189° South 450 518 36,000  Level Gander Center
10:46AM 50.4333 -72.9000 172° South 440 506 36,000  Level Montreal Center
10:47AM 50.3000 -72.9167 185° South 440 506 36,000  Level Montreal Center
10:48AM 50.1833 -72.9500 190° South 440 506 36,000  Level Montreal Center
10:49AM 50.0500 -72.9500 180° South 440 506 36,000  Level Montreal Center
10:50AM 49.9333 -72.9667 185° South 430 495 36,000  Level Montreal Center
10:51AM 49.8167 -72.9667 180° South 430 495 36,000  Level Montreal Center
10:52AM 49.7000 -73.0000 190° South 430 495 36,000  Level Montreal Center
10:53AM 49.5833 -73.0167 185° South 430 495 36,000  Level Montreal Center
10:54AM 49.4667 -73.0167 180° South 420 483 36,000  Level Montreal Center
10:55AM 49.3500 -73.0500 191° South 420 483 36,000  Level Montreal Center
10:56AM 49.2333 -73.0500 180° South 420 483 36,000  Level Montreal Center
10:57AM 49.1167 -73.0667 185° South 420 483 36,000  Level Montreal Center
10:58AM 49.0000 -73.1000 191° South 410 472 36,000  Level Montreal Center
10:59AM 48.8833 -73.1000 180° South 410 472 36,000  Level Montreal Center
11:00AM 48.7833 -73.1167 186° South 410 472 36,000  Level Montreal Center
11:01AM 48.6500 -73.1167 180° South 410 472 36,000  Level Montreal Center
11:02AM 48.5500 -73.1500 192° South 410 472 36,000  Level Montreal Center
11:03AM 48.4333 -73.1500 180° South 400 460 36,000  Level Montreal Center
11:04AM 48.3167 -73.1667 185° South 410 472 36,000  Level Montreal Center
11:05AM 48.1833 -73.2000 189° South 400 460 36,000  Level Montreal Center
11:06AM 48.0833 -73.2000 180° South 400 460 36,000  Level Montreal Center
11:07AM 47.9833 -73.2000 180° South 400 460 36,000  Level Montreal Center
11:14AM 47.2810 -73.3090 185° South 389 448 36,000  Level FlightAware ADS-B
11:14AM 47.2300 -73.3150 185° South 390 449 36,000  Level FlightAware ADS-B
11:15AM 47.1630 -73.3230 185° South 390 449 36,000  Level FlightAware ADS-B
11:16AM 47.1020 -73.3300 185° South 390 449 36,000  Level FlightAware ADS-B
11:16AM 47.0490 -73.3360 185° South 390 449 36,000  Level FlightAware ADS-B
11:17AM 46.9530 -73.3470 185° South 386 444 36,000  Level FlightAware ADS-B
11:18AM 46.8890 -73.3550 185° South 383 441 36,000  Level FlightAware ADS-B
11:18AM 46.8340 -73.3610 185° South 381 438 36,000  Level FlightAware ADS-B
11:19AM 46.7820 -73.3670 185° South 381 438 36,000  Level FlightAware ADS-B
11:19AM 46.7270 -73.3740 185° South 380 437 36,000  Level FlightAware ADS-B
11:20AM 46.6650 -73.3810 185° South 380 437 36,000  Level FlightAware ADS-B
11:20AM 46.6010 -73.3890 185° South 379 436 36,000  Level FlightAware ADS-B
11:21AM 46.5510 -73.3940 185° South 378 435 36,000  Level FlightAware ADS-B
11:21AM 46.4870 -73.4020 185° South 378 435 36,000  Level FlightAware ADS-B
11:22AM 46.4360 -73.4070 185° South 377 434 36,000  Level FlightAware ADS-B
11:23AM 46.3730 -73.4140 185° South 376 433 36,000  Level FlightAware ADS-B
11:23AM 46.3210 -73.4200 185° South 376 433 36,000  Level FlightAware ADS-B
11:24AM 46.2680 -73.4260 185° South 376 433 36,000  Level FlightAware ADS-B
11:24AM 46.2180 -73.4320 185° South 376 433 36,000  Level FlightAware ADS-B
11:25AM 46.1550 -73.4390 185° South 377 434 36,000  Level FlightAware ADS-B
11:25AM 46.0930 -73.4460 185° South 380 437 36,000  Level FlightAware ADS-B
11:26AM 46.0390 -73.4520 185° South 383 441 36,000  Level FlightAware ADS-B
11:26AM 45.9750 -73.4600 185° South 386 444 36,000  Level FlightAware ADS-B
11:27AM 45.9140 -73.4660 185° South 387 445 36,000  Level FlightAware ADS-B
11:27AM 45.8590 -73.4730 185° South 386 444 36,000  Level FlightAware ADS-B
11:28AM 45.7970 -73.4800 185° South 386 444 36,000  Level FlightAware ADS-B
11:29AM 45.7420 -73.4860 185° South 387 445 36,000  Level FlightAware ADS-B
11:29AM 45.6780 -73.4930 185° South 388 447 36,000  Level FlightAware ADS-B
11:30AM 45.6140 -73.5000 185° South 389 448 36,000  Level FlightAware ADS-B
11:30AM 45.5610 -73.5060 185° South 389 448 36,000  Level FlightAware ADS-B
11:31AM 45.5148 -73.5110 184° South 387 445 36,000  Level FlightAware ADS-B (CYOW)
11:31AM 45.5060 -73.5120 185° South 388 447 36,000  Level FlightAware ADS-B
11:31AM 45.4450 -73.5190 185° South 385 443 36,000  Level FlightAware ADS-B
11:31AM 45.4289 -73.5203 185° South 383 441 36,000  Level FlightAware ADS-B (CYOW)
11:32AM 45.3780 -73.5260 185° South 382 440 36,000  Level FlightAware ADS-B
11:32AM 45.3750 -73.5263 184° South 381 438 36,000  Level FlightAware ADS-B (CYOW)
11:32AM 45.3350 -73.5310 185° South 381 438 36,000  Level FlightAware ADS-B
11:33AM 45.3028 -73.5342 185° South 380 437 36,000  Level FlightAware ADS-B (CYOW)
11:33AM 45.2630 -73.5390 185° South 380 437 36,000  Level FlightAware ADS-B
11:33AM 45.2462 -73.5406 185° South 379 436 36,000  Level FlightAware ADS-B (KBTV)
11:34AM 45.2040 -73.5450 185° South 379 436 36,000  Level FlightAware ADS-B
11:34AM 45.1783 -73.5481 184° South 378 435 36,000  Level FlightAware ADS-B (KBTV)
11:34AM 45.1380 -73.5530 185° South 379 436 36,000  Level FlightAware ADS-B
11:34AM 45.1222 -73.5542 184° South 377 434 36,000  Level FlightAware ADS-B (CYOW)
11:35AM 45.0770 -73.5590 185° South 377 434 36,000  Level FlightAware ADS-B
11:35AM 45.0633 -73.5606 184° South 377 434 36,000  Level FlightAware ADS-B (CYOW)
11:35AM 45.0230 -73.5650 185° South 379 436 36,000  Level FlightAware ADS-B
11:36AM 45.0048 -73.5670 184° South 378 435 36,000  Level FlightAware ADS-B (CYOW)
11:36AM 44.9630 -73.5720 185° South 379 436 36,000  Level FlightAware ADS-B
11:36AM 44.9551 -73.5724 184° South 377 434 36,000  Level FlightAware ADS-B (CYOW)
11:36AM 44.9090 -73.5770 185° South 378 435 36,000  Level FlightAware ADS-B
11:37AM 44.8888 -73.5795 184° South 377 434 36,000  Level FlightAware ADS-B (KBTV)
11:37AM 44.8550 -73.5830 185° South 378 435 36,000  Level FlightAware ADS-B
11:37AM 44.8319 -73.5856 184° South 377 434 36,000  Level FlightAware ADS-B (KBTV)
11:38AM 44.7940 -73.5900 185° South 379 436 36,000  Level FlightAware ADS-B
11:38AM 44.7657 -73.5929 184° South 378 435 36,000  Level FlightAware ADS-B (KBTV)
11:38AM 44.7320 -73.5960 185° South 380 437 36,000  Level FlightAware ADS-B
11:38AM 44.7047 -73.5994 184° South 379 436 36,000  Level FlightAware ADS-B (CYOW)
11:39AM 44.6770 -73.6020 185° South 381 438 36,000  Level FlightAware ADS-B
11:39AM 44.6349 -73.6069 184° South 381 438 36,000  Level FlightAware ADS-B (KBTV)
11:40AM 44.5850 -73.6120 185° South 382 440 36,000  Level FlightAware ADS-B
11:40AM 44.5802 -73.6128 184° South 381 438 36,000  Level FlightAware ADS-B (CYOW)
11:40AM 44.5320 -73.6180 185° South 380 437 36,000  Level FlightAware ADS-B
11:41AM 44.4896 -73.6225 184° South 379 436 36,000  Level FlightAware ADS-B (CYOW)
11:41AM 44.4700 -73.6250 185° South 380 437 36,000  Level FlightAware ADS-B
11:41AM 44.4163 -73.6303 184° South 379 436 36,000  Level FlightAware ADS-B (CYOW)
11:41AM 44.4150 -73.6300 185° South 380 437 36,000  Level FlightAware ADS-B
11:42AM 44.3710 -73.6350 185° South 380 437 36,000  Level FlightAware ADS-B
11:42AM 44.4208 -73.6298 184° South 379 436 36,000  Level FlightAware ADS-B (KBTV)
11:42AM 44.3040 -73.6420 185° South 381 438 36,000  Level FlightAware ADS-B
11:42AM 44.2919 -73.6434 184° South 380 437 36,000  Level FlightAware ADS-B (CYOW)
11:43AM 44.2440 -73.6480 185° South 380 437 36,000  Level FlightAware ADS-B
11:43AM 44.2223 -73.6509 184° South 379 436 36,000  Level FlightAware ADS-B (KBTV)
11:43AM 44.1950 -73.6540 185° South 379 436 36,000  Level FlightAware ADS-B
11:44AM 44.1548 -73.6580 184° South 377 434 36,000  Level FlightAware ADS-B (KBTV)
11:44AM 44.1270 -73.6610 185° South 378 435 36,000  Level FlightAware ADS-B
11:44AM 44.0823 -73.6656 184° South 376 433 36,000  Level FlightAware ADS-B (KBTV)
11:45AM 44.0238 -73.6718 184° South 376 433 36,000  Level FlightAware ADS-B (CYOW)
11:46AM 43.9364 -73.6809 184° South 376 433 36,000  Level FlightAware ADS-B (CYOW)
11:46AM 43.8803 -73.6868 184° South 375 432 36,000  Level FlightAware ADS-B (CYOW)
11:47AM 43.8056 -73.6946 184° South 375 432 36,000  Level FlightAware ADS-B (CYOW)
11:47AM 43.7770 -73.6980 185° South 376 433 36,000  Level FlightAware ADS-B
11:48AM 43.7365 -73.7018 184° South 375 432 36,000  Level FlightAware ADS-B (CYOW)
11:48AM 43.6617 -73.7094 184° South 373 429 36,000  Level FlightAware ADS-B (CYOW)
11:49AM 43.6120 -73.7147 184° South 372 428 36,000  Level FlightAware ADS-B (CYOW)
11:49AM 43.5515 -73.7211 184° South 370 426 36,000  Level FlightAware ADS-B (CYOW)
11:50AM 43.4990 -73.7265 184° South 369 425 36,000  Level FlightAware ADS-B (CYOW)
11:51AM 43.4328 -73.7333 184° South 368 423 36,000  Level FlightAware ADS-B (CYOW)
11:51AM 43.3813 -73.7387 184° South 367 422 36,000  Level FlightAware ADS-B (CYOW)
11:52AM 43.3316 -73.7437 184° South 367 422 36,000  Level FlightAware ADS-B (CYOW)
11:52AM 43.2766 -73.7494 184° South 366 421 36,000  Level FlightAware ADS-B (CYOW)
11:53AM 43.2150 -73.7557 184° South 365 420 36,000  Level FlightAware ADS-B (CYOW)
11:54AM 43.1333 -73.7640 184° South 365 420 36,000  Level FlightAware ADS-B (CYOW)
11:54AM 43.0668 -73.7708 184° South 363 418 36,000  Level FlightAware ADS-B (CYOW)
11:55AM 42.9975 -73.7778 184° South 364 419 36,000  Level FlightAware ADS-B (CYOW)
11:56AM 42.9308 -73.7846 184° South 364 419 36,000  Level FlightAware ADS-B (CYOW)
11:59AM 42.6256 -73.8580 184° South 366 421 36,000  Level FlightAware ADS-B (KWWD)
11:59AM 42.6070 -73.8663 198° South 354 407 36,000  Level FlightAware ADS-B (KWWD)
12:00PM 42.5013 -73.9136 198° South 354 407 36,000  Level FlightAware ADS-B (KWWD)
12:01PM 42.4145 -73.9522 198° South 353 406 36,000  Level FlightAware ADS-B (KWWD)
12:04PM 42.1269 -74.0769 198° South 353 406 36,000  Level FlightAware ADS-B (KWWD)
12:05PM 42.0611 -74.1052 198° South 356 410 36,000  Level FlightAware ADS-B (KWWD)
12:05PM 42.0002 -74.1312 198° South 357 411 36,000 -360 Level FlightAware ADS-B (KWWD)
12:06PM 41.9297 -74.1613 198° South 356 410 35,500 -780 Descending FlightAware ADS-B (KWWD)
12:07PM 41.8761 -74.1841 198° South 358 412 35,000 -960 Descending FlightAware ADS-B (KSNC)
12:08PM 41.7983 -74.2172 198° South 362 417 34,200 -1,080 Descending FlightAware ADS-B (KSNC)
12:08PM 41.7444 -74.2401 198° South 365 420 33,600 -1,080 Descending FlightAware ADS-B (KSNC)
12:09PM 41.6812 -74.2668 198° South 371 427 32,900 -1,080 Descending FlightAware ADS-B (KSNC)
12:10PM 41.5792 -74.3098 198° South 371 427 31,900 -1,020 Descending FlightAware ADS-B (KWWD)
12:10PM 41.5150 -74.3369 198° South 370 426 31,300 -960 Descending FlightAware ADS-B (KSNC)
12:11PM 41.4659 -74.3576 198° South 369 425 30,800 -1,080 Descending FlightAware ADS-B (KSNC)
12:12PM 41.4128 -74.3799 198° South 369 425 30,200 -1,140 Descending FlightAware ADS-B (KSNC)
12:12PM 41.3994 -74.3855 197° South 371 427 30,100 -840 Descending FlightAware ADS-B (KWWD)
12:12PM 41.3554 -74.4039 198° South 369 425 29,700 -960 Descending FlightAware ADS-B (KWWD)
12:13PM 41.3026 -74.4261 197° South 384 442 29,100 -1,080 Descending FlightAware ADS-B (KSNC)
12:13PM 41.2177 -74.4615 198° South 387 445 28,300 -1,200 Descending FlightAware ADS-B (KWWD)
12:14PM 41.2112 -74.4642 197° South 389 448 28,100 -480 Descending FlightAware ADS-B (KSNC)
12:14PM 41.1465 -74.4910 197° South 389 448 28,000 -60 Descending FlightAware ADS-B (KWWD)
12:15PM 41.0332 -74.5428 209° Southwest 367 422 28,000  Level FlightAware ADS-B (KWWD)
12:16PM 41.0061 -74.5688 225° Southwest 371 427 28,000  Level FlightAware ADS-B (KSNC)
12:16PM 40.9670 -74.6419 237° Southwest 378 435 28,000  Level FlightAware ADS-B (KWWD)
12:17PM 40.9156 -74.7446 237° Southwest 379 436 28,000  Level FlightAware ADS-B (KWWD)
12:17PM 40.9117 -74.7523 237° Southwest 379 436 28,000  Level FlightAware ADS-B (KSNC)
12:18PM 40.8806 -74.8140 236° Southwest 378 435 28,000 -600 Level FlightAware ADS-B (KWWD)
12:18PM 40.8392 -74.8960 236° Southwest 375 432 27,300 -960 Descending FlightAware ADS-B (KWWD)
12:19PM 40.8003 -74.9731 236° Southwest 379 436 26,700 -1,020 Descending FlightAware ADS-B (KWWD)
12:20PM 40.7705 -75.0321 236° Southwest 384 442 26,100 -1,080 Descending FlightAware ADS-B (KPHL)
12:20PM 40.7234 -75.1251 236° Southwest 377 434 25,300 -1,020 Descending FlightAware ADS-B (KWWD)
12:21PM 40.6935 -75.1840 236° Southwest 375 432 24,800 -960 Descending FlightAware ADS-B (KWWD)
12:22PM 40.6304 -75.3077 237° Southwest 329 379 23,700 -960 Descending FlightAware ADS-B (KWWD)
12:23PM 40.6037 -75.3600 236° Southwest 323 372 23,200 -1,020 Descending FlightAware ADS-B (KWWD)
12:24PM 40.5395 -75.4853 236° Southwest 321 369 21,900 -1,080 Descending FlightAware ADS-B (KWWD)
12:24PM 40.5127 -75.5374 236° Southwest 323 372 21,300 -960 Descending FlightAware ADS-B (KWWD)
12:25PM 40.4913 -75.5791 236° Southwest 321 369 20,900 -1,020 Descending FlightAware ADS-B (KWWD)
12:25PM 40.4619 -75.6360 237° Southwest 325 374 20,300 -1,080 Descending FlightAware ADS-B (KWWD)
12:26PM 40.4515 -75.6562 237° Southwest 325 374 20,100 -420 Descending FlightAware ADS-B (KWWD)
12:26PM 40.4209 -75.7152 237° Southwest 322 371 20,000 -120 Descending FlightAware ADS-B (KWWD)
12:27PM 40.3943 -75.7665 237° Southwest 322 371 20,000  Level FlightAware ADS-B (KWWD)
12:28PM 40.3525 -75.8472 237° Southwest 322 371 20,000  Level FlightAware ADS-B (KWWD)
12:28PM 40.3271 -75.8959 237° Southwest 322 371 20,000  Level FlightAware ADS-B (KWWD)
12:29PM 40.2979 -75.9519 236° Southwest 328 377 20,000  Level FlightAware ADS-B (KPHL)
12:30PM 40.2492 -76.0451 237° Southwest 325 374 20,000 -420 Level FlightAware ADS-B (KWWD)
12:30PM 40.2163 -76.1082 237° Southwest 324 373 19,400 -1,020 Descending FlightAware ADS-B (KWWD)
12:31PM 40.1869 -76.1642 237° Southwest 322 371 18,800 -1,080 Descending FlightAware ADS-B (KWWD)
12:31PM 40.1573 -76.2206 236° Southwest 323 372 18,200 -960 Descending FlightAware ADS-B (KWWD)
12:32PM 40.1278 -76.2765 237° Southwest 318 366 17,700 -1,020 Descending FlightAware ADS-B (KWWD)
12:33PM 40.0969 -76.3414 239° Southwest 322 371 17,000 -1,020 Descending FlightAware ADS-B (KWWD)
12:33PM 40.0760 -76.3868 239° Southwest 320 368 16,500 -1,020 Descending FlightAware ADS-B (KAPG)
12:34PM 40.0467 -76.4502 239° Southwest 318 366 15,800 -1,020 Descending FlightAware ADS-B (KAPG)
12:35PM 40.0129 -76.5230 239° Southwest 315 362 15,200 -540 Descending FlightAware ADS-B (KWWD)
12:36PM 39.9601 -76.6367 239° Southwest 315 362 14,900 -180 Descending FlightAware ADS-B (KWWD)
12:36PM 39.9369 -76.6867 239° Southwest 315 362 14,900  Level FlightAware ADS-B (KWWD)
12:37PM 39.9107 -76.7430 239° Southwest 315 362 14,900  Level FlightAware ADS-B (KWWD)
12:38PM 39.8841 -76.7998 239° Southwest 315 362 14,900  Level FlightAware ADS-B (KAPG)
12:38PM 39.8537 -76.8648 239° Southwest 315 362 14,900  Level FlightAware ADS-B (KWWD)
12:39PM 39.8314 -76.9125 239° Southwest 314 361 14,900  Level FlightAware ADS-B (KWWD)
12:39PM 39.7935 -76.9930 239° Southwest 315 362 14,900 -900 Level FlightAware ADS-B (KWWD)
12:40PM 39.7661 -77.0515 240° Southwest 320 368 13,700 -1,980 Descending FlightAware ADS-B (KWWD)
12:41PM 39.7410 -77.1045 238° Southwest 321 369 12,700 -1,620 Descending FlightAware ADS-B (KAPG)
12:41PM 39.7358 -77.1156 239° Southwest 320 368 12,600 -1,440 Descending FlightAware ADS-B (KJYO)
12:41PM 39.7121 -77.1657 239° Southwest 314 361 11,800 -1,500 Descending FlightAware ADS-B (KJYO)
12:41PM 39.7326 -77.1225 238° Southwest 318 366 11,800 -1,200 Level FlightAware ADS-B (KAPG)
12:42PM 39.6936 -77.2048 239° Southwest 312 359 11,200 -1,620 Descending FlightAware ADS-B (KJYO)
12:42PM 39.6869 -77.2188 238° Southwest 311 358 11,000 -1,680 Descending FlightAware ADS-B (KWWD)
12:42PM 39.6607 -77.2742 239° Southwest 308 354 10,200 -1,320 Descending FlightAware ADS-B (KJYO)
12:42PM 39.6557 -77.2849 238° Southwest 308 354 10,100 -480 Descending FlightAware ADS-B (KWWD)
12:43PM 39.6406 -77.3156 238° Southwest 298 343 10,000 -360 Descending FlightAware ADS-B (KWWD)
12:43PM 39.6273 -77.3312 210° Southwest 283 326 9,900 -840 Descending FlightAware ADS-B (KWWD)
12:43PM 39.6047 -77.3397 186° South 292 336 9,600 -1,140 Descending FlightAware ADS-B (KWWD)
12:43PM 39.5867 -77.3413 185° South 289 333 9,300 -1,200 Descending FlightAware ADS-B (KJYO)
12:44PM 39.5800 -77.3420 185° South 279 321 9,200 -900 Descending FlightAware ADS-B (KWWD)
12:44PM 39.5649 -77.3436 185° South 288 331 9,000 -1,200 Descending FlightAware ADS-B (KJYO)
12:44PM 39.5415 -77.3456 184° South 282 325 8,600 -1,680 Descending FlightAware ADS-B (KJYO)
12:44PM 39.5331 -77.3464 186° South 273 314 8,500 -1,200 Descending FlightAware ADS-B (KWWD)
12:44PM 39.5202 -77.3481 187° South 280 322 8,300 -1,140 Descending FlightAware ADS-B (KJYO)
12:45PM 39.5019 -77.3507 187° South 280 322 8,000 -1,080 Descending FlightAware ADS-B (KJYO)
12:45PM 39.4825 -77.3534 187° South 279 321 7,800 -1,080 Descending FlightAware ADS-B (KJYO)
12:45PM 39.4636 -77.3560 187° South 277 319 7,500 -1,200 Descending FlightAware ADS-B (KJYO)
12:45PM 39.4465 -77.3585 187° South 277 319 7,200 -1,320 Descending FlightAware ADS-B (KJYO)
12:46PM 39.4217 -77.3620 187° South 277 319 6,800 -1,200 Descending FlightAware ADS-B (KJYO)
12:46PM 39.3986 -77.3636 178° South 279 321 6,500 -720 Descending FlightAware ADS-B (KJYO)
12:46PM 39.3665 -77.3624 178° South 273 314 6,300 -780 Descending FlightAware ADS-B (KJYO)
12:47PM 39.3502 -77.3620 179° South 276 318 6,000 -1,200 Descending FlightAware ADS-B (KJYO)
12:47PM 39.3271 -77.3615 178° South 275 316 5,700 -1,020 Descending FlightAware ADS-B (KJYO)
12:47PM 39.3090 -77.3611 178° South 277 319 5,500 -1,080 Descending FlightAware ADS-B (KJYO)
12:47PM 39.2895 -77.3606 178° South 282 325 5,200 -1,080 Descending FlightAware ADS-B (KJYO)
12:48PM 39.2584 -77.3599 178° South 277 319 4,800 -900 Descending FlightAware ADS-B (KJYO)
12:48PM 39.2407 -77.3594 178° South 275 316 4,600 -780 Descending FlightAware ADS-B (KJYO)
12:48PM 39.2058 -77.3586 178° South 275 316 4,300 -600 Descending FlightAware ADS-B (KJYO)
12:49PM 39.1565 -77.3573 178° South 259 298 4,000 -360 Descending FlightAware ADS-B (KJYO)
12:50PM 39.1171 -77.3571 178° South 259 298 3,900 -120 Descending FlightAware ADS-B (KJYO)
12:50PM 39.0963 -77.3574 182° South 233 268 3,900  Level FlightAware ADS-B (KJYO)
12:50PM 39.0793 -77.3577 180° South 232 267 3,900  Level FlightAware ADS-B (KJYO)
12:50PM 39.0681 -77.3576 178° South 227 261 3,900  Level FlightAware ADS-B (KJYO)
12:51PM 39.0625 -77.3575 179° South 227 261 3,900  Level FlightAware ADS-B (KJYO)
12:51PM 39.0073 -77.3572 180° South 233 268 3,900  Level FlightAware ADS-B (KDAA)
12:52PM 39.0045 -77.3572 181° South 235 270 3,900  Level FlightAware ADS-B (KJYO)
12:52PM 38.9887 -77.3572 181° South 236 272 3,900  Level FlightAware ADS-B (KJYO)
12:52PM 38.9613 -77.3572 179° South 235 270 3,900  Level FlightAware ADS-B (KDAA)
12:52PM 38.9453 -77.3571 179° South 238 274 3,900  Level FlightAware ADS-B (KDAA)
12:53PM 38.9239 -77.3569 179° South 235 270 3,900  Level FlightAware ADS-B (KDAA)
12:53PM 38.9038 -77.3568 180° South 233 268 3,900  Level FlightAware ADS-B (KDAA)
12:53PM 38.8795 -77.3572 182° South 237 273 3,900  Level FlightAware ADS-B (KDAA)
12:54PM 38.8578 -77.3577 181° South 235 270 3,900  Level FlightAware ADS-B (KDAA)
12:54PM 38.8357 -77.3582 181° South 239 275 3,900  Level FlightAware ADS-B (KDAA)
12:54PM 38.8142 -77.3588 182° South 234 269 3,900  Level FlightAware ADS-B (KDAA)
12:55PM 38.7927 -77.3594 182° South 237 273 3,900  Level FlightAware ADS-B (KDAA)
12:55PM 38.7717 -77.3599 181° South 236 272 3,900  Level FlightAware ADS-B (KDAA)
12:55PM 38.7544 -77.3609 191° South 235 270 3,900  Level FlightAware ADS-B (KDAA)
12:55PM 38.7496 -77.3626 201° Southwest 232 267 3,900  Level FlightAware ADS-B
12:55PM 38.7480 -77.3634 201° Southwest 232 267 3,900  Level FlightAware ADS-B (KDAA)
12:55PM 38.7449 -77.3654 212° Southwest 228 262 3,900 -600 Level FlightAware ADS-B (KDAA)
12:55PM 38.7402 -77.3699 221° Southwest 226 260 3,800 -600 Descending FlightAware ADS-B (KDAA)
12:56PM 38.7372 -77.3739 234° Southwest 222 255 3,800 -600 Level FlightAware ADS-B (KDAA)
12:56PM 38.7340 -77.3806 244° Southwest 218 251 3,700 -600 Descending FlightAware ADS-B (KDAA)
12:56PM 38.7322 -77.3868 249° West 216 249 3,700 -720 Level FlightAware ADS-B (KDAA)
12:56PM 38.7309 -77.3922 255° West 214 246 3,600 -480 Descending FlightAware ADS-B (KDAA)
12:56PM 38.7265 -77.4175 259° West 203 234 3,500 -420 Descending FlightAware ADS-B (KDAA)
12:56PM 38.7248 -77.4290 262° West 196 226 3,400 -840 Descending FlightAware ADS-B
12:56PM 38.7247 -77.4340 271° West 193 222 3,300 -720 Descending FlightAware ADS-B (KDAA)
12:56PM 38.7251 -77.4385 280° West 190 219 3,300 -600 Level FlightAware ADS-B (KDAA)
12:57PM 38.7268 -77.4443 296° West 186 214 3,200 -1,200 Descending FlightAware ADS-B (KDAA)
12:57PM 38.7292 -77.4487 310° West 184 212 3,100 -1,200 Descending FlightAware ADS-B (KDAA)
12:57PM 38.7296 -77.4493 311° West 184 212 3,100  Level FlightAware ADS-B
12:57PM 38.7323 -77.4526 319° Northwest 182 209 3,100 -720 Level FlightAware ADS-B (KDAA)
12:57PM 38.7357 -77.4557 325° Northwest 180 207 3,000 -600 Descending FlightAware ADS-B (KDAA)
12:57PM 38.7399 -77.4587 335° Northwest 178 205 3,000 -600 Level FlightAware ADS-B (KDAA)
12:57PM 38.7433 -77.4602 345° North 176 203 2,900 -720 Descending FlightAware ADS-B (KDAA)
12:57PM 38.7474 -77.4612 350° North 177 204 2,900  Level FlightAware ADS-B (KDAA)
12:57PM 38.7508 -77.4617 356° North 179 206 2,900  Level FlightAware ADS-B (KDAA)
12:57PM 38.7607 -77.4619 North 180 207 2,900  Level FlightAware ADS-B (KDAA)
12:58PM 38.7760 -77.4618 North 182 209 2,900  Level FlightAware ADS-B (KDAA)
12:58PM 38.7774 -77.4618 360° North 183 211 2,900  Level FlightAware ADS-B
12:58PM 38.7910 -77.4616 North 167 192 2,900  Level FlightAware ADS-B (KDAA)
12:58PM 38.7938 -77.4616 360° North 167 192 2,900 -420 Level FlightAware ADS-B
12:58PM 38.8042 -77.4615 North 168 193 2,800 -660 Descending FlightAware ADS-B (KDAA)
12:58PM 38.8079 -77.4615 360° North 169 194 2,700 -1,320 Descending FlightAware ADS-B
12:58PM 38.8162 -77.4614 North 174 200 2,500 -1,320 Descending FlightAware ADS-B (KDAA)
12:59PM 38.8232 -77.4613 North 177 204 2,300 -1,140 Descending FlightAware ADS-B
12:59PM 38.8284 -77.4612 North 177 204 2,200 -900 Descending FlightAware ADS-B (KDAA)
12:59PM 38.8394 -77.4611 North 168 193 2,000 -840 Descending FlightAware ADS-B (KDAA)
12:59PM 38.8523 -77.4609 North 168 193 1,800 -720 Descending FlightAware ADS-B (KDAA)
01:00PM 38.8603 -77.4608 North 153 176 1,600 -780 Descending FlightAware ADS-B (KDAA)
01:00PM 38.8782 -77.4606 North 137 158 1,300 -660 Descending FlightAware ADS-B (KDAA)
01:00PM 38.9000 -77.4667 North 138 159 1,000 -540 Descending Potomac TRACON